Aviation Digital Data Service (ADDS)

Output produced by METARs form (1445 UTC 22 February 2018)
found at http://www.aviationweather.gov/adds/metars/
 
KBTP 221409Z AUTO 05011KT 3SM UP BR BKN008 BKN034 OVC045 02/01 A3050 RMK AO2 CIG 007V012 P0004 FZRANO
KBTP 221351Z AUTO 06009KT 3SM UP BR FEW008 BKN044 OVC050 02/01 A3050 RMK AO2 RAE21UPB45SNB21E45 SLP344 P0017 T00220011 FZRANO
KBTP 221350Z AUTO 05008KT 3SM UP BR FEW008 SCT035 OVC048 02/01 A3050 RMK AO2 RAE21UPB45SNB21E45 P0017 FZRANO
KBTP 221328Z AUTO 05011KT 2SM -SN BR FEW012 OVC045 02/01 A3050 RMK AO2 RAE21SNB21 P0010 FZRANO
KBTP 221256Z AUTO 05009KT 7SM RA FEW010 SCT013 OVC045 02/01 A3050 RMK AO2 SLP345 P0010 T00220011 FZRANO
KBTP 221156Z AUTO 06009KT 9SM RA BKN045 OVC060 03/02 A3050 RMK AO2 SLP344 P0010 60013 7//// T00280017 10039 20028 53007
KBTP 221056Z AUTO 03007KT 10SM -RA OVC043 03/02 A3049 RMK AO2 SLP340 P0000 T00280017
KBTP 220956Z AUTO 03006KT 10SM -RA OVC043 03/02 A3048 RMK AO2 RAB00 SLP339 P0002 T00280017
KBTP 220856Z AUTO 04007KT 10SM SCT041 OVC050 03/02 A3048 RMK AO2 RAE32 SLP337 P0000 60001 T00330017 56013
KBTP 220756Z AUTO 03006KT 10SM -RA FEW039 OVC065 03/02 A3050 RMK AO2 SLP342 P0000 T00330022
KBTP 220656Z AUTO 04007KT 10SM -RA OVC037 04/02 A3050 RMK AO2 RAB49 SLP341 P0001 T00390017
KBTP 220556Z AUTO 02007KT 10SM BKN041 BKN055 OVC070 04/01 A3052 RMK AO2 SLP347 60000 T00390011 10056 20039 58001
KBTP 220456Z AUTO 01005KT 10SM FEW035 SCT041 OVC060 04/01 A3052 RMK AO2 SLP346 T00390011 402000039
KBTP 220356Z AUTO VRB04KT 10SM BKN039 OVC060 04/01 A3053 RMK AO2 RAB14E31 SLP348 P0000 T00440006
KBTP 212356Z AUTO 34007KT 10SM OVC011 06/03 A3049 RMK AO2 SLP333 6//// T00560033 10133 20056 51024
KBTP 212354Z AUTO 34006KT 10SM OVC011 06/03 A3049 RMK AO2
KBTP 212256Z AUTO VRB05KT 10SM OVC009 06/04 A3046 RMK AO2 SLP323 T00560039
KBTP 212156Z AUTO VRB06KT 10SM OVC009 06/04 A3041 RMK AO2 SLP307 T00610044
KBTP 212056Z AUTO VRB04KT 10SM OVC009 07/06 A3040 RMK AO2 RAB07E51 SLP304 P0000 6//// T00670056 53027
KBTP 211956Z AUTO 33008KT 10SM OVC007 08/07 A3037 RMK AO2 RAE12 SLP292 P0001 T00830067
KBTP 211920Z AUTO 33009G15KT 10SM OVC007 09/08 A3035 RMK AO2 RAE12 CIG 004V010 P0001
KBTP 211903Z AUTO 33012G17KT 8SM -RA OVC005 11/09 A3035 RMK AO2 CIG 004V010 P0001
KBTP 211856Z AUTO 34009G14KT 300V010 4SM -RA BR OVC007 13/12 A3034 RMK AO2 CIG 004V008 SLP278 T01280117
KBTP 211835Z AUTO 32005KT 8SM -RA BKN007 BKN011 OVC039 13/12 A3033 RMK AO2
KBTP 211826Z AUTO 33004KT 7SM -RA SCT007 OVC039 13/12 A3033 RMK AO2 PNO $
KBTP 211756Z AUTO VRB05KT 10SM -RA OVC035 13/11 A3032 RMK AO2 RAB07 SLP271 6//// T01330111 10200 20133 51034 PNO $
KBTP 211656Z AUTO 33009G16KT 10SM FEW020 OVC031 14/11 A3030 RMK AO2 RAB08E28 SLP264 T01440106 PNO $
KBTP 211556Z AUTO 31006G16KT 10SM OVC033 16/13 A3027 RMK AO2 RAB35E53 PRESRR SLP252 P0000 T01610128
KBTP 211456Z AUTO 23014G18KT 10SM OVC037 20/13 A3022 RMK AO2 SLP232 T02000128 53009